WetterOnline ( http://www.wetteronline.de )

Wetter aktuell Stetten

Aktuelles Wetter: Messstetten (900m)

6-stündlich | Neueste Meldungen
Ortszeit Temperatur Wetter
So, 18.11. 19:00 -4.3° C bedeckt
So, 18.11. 13:00 3.0° C wolkenlos
So, 18.11. 7:00 -3.9° C wolkenlos
So, 18.11. 1:00 -2.6° C wolkenlos
Sa, 17.11. 19:00 1.3° C wolkenlos
Sa, 17.11. 13:00 2.2° C wolkenlos
Sa, 17.11. 7:00 -1.7° C bewölkt
Sa, 17.11. 1:00 -0.2° C bedeckt
Ortszeit Temperatur Wetter
So, 18.11. 21:00 -0.9° C bedeckt
So, 18.11. 20:50 -0.9° C bedeckt
So, 18.11. 20:40 -0.9° C bedeckt
So, 18.11. 20:30 -0.8° C bewölkt
So, 18.11. 20:20 -0.8° C bewölkt
So, 18.11. 20:10 -0.7° C wolkig
So, 18.11. 20:00 -0.6° C bewölkt
So, 18.11. 19:30 -0.9° C bedeckt
So, 18.11. 19:00 -4.3° C bedeckt
So, 18.11. 18:30 -4.3° C leicht bewölkt
So, 18.11. 18:00 -3.6° C wolkenlos
Ortszeit Relative Feuchte Sichtweite
So, 18.11. 19:00 87% 12 km
So, 18.11. 13:00 57% 20 km
So, 18.11. 7:00 89% 10 km
So, 18.11. 1:00 82% 16 km
Sa, 17.11. 19:00 75% 27 km
Sa, 17.11. 13:00 74% 13 km
Sa, 17.11. 7:00 91% 6 km
Sa, 17.11. 1:00 93% 4.8 km
Ortszeit Relative Feuchte Sichtweite
So, 18.11. 21:00 78% 23 km
So, 18.11. 20:50 78% -
So, 18.11. 20:40 78% -
So, 18.11. 20:30 78% 21 km
So, 18.11. 20:20 78% -
So, 18.11. 20:10 78% -
So, 18.11. 20:00 78% 17 km
So, 18.11. 19:30 81% 18 km
So, 18.11. 19:00 87% 12 km
So, 18.11. 18:30 84% 16 km
So, 18.11. 18:00 85% 16 km
Ortszeit Niederschlagsmenge Niederschlagsart
So, 18.11. 19:00 0.0 l/m2 in 12 Std. -
So, 18.11. 13:00 0.0 l/m2 in 6 Std. -
So, 18.11. 7:00 0.0 l/m2 in 12 Std. -
So, 18.11. 1:00 0.0 l/m2 in 6 Std. -
Sa, 17.11. 19:00 0.0 l/m2 in 12 Std. -
Sa, 17.11. 13:00 0.0 l/m2 in 6 Std. -
Sa, 17.11. 7:00 0.0 l/m2 in 12 Std. -
Sa, 17.11. 1:00 0.0 l/m2 in 6 Std. -
Ortszeit Niederschlagsmenge Niederschlagsart
So, 18.11. 21:00 0.0 l/m2 in 1 Std. -
So, 18.11. 20:50 keine Meldung -
So, 18.11. 20:40 keine Meldung -
So, 18.11. 20:30 0.0 l/m2 in 1 Std. -
So, 18.11. 20:20 keine Meldung -
So, 18.11. 20:10 keine Meldung -
So, 18.11. 20:00 0.0 l/m2 in 1 Std. -
So, 18.11. 19:30 0.0 l/m2 in 1 Std. -
So, 18.11. 19:00 0.0 l/m2 in 1 Std. -
So, 18.11. 18:30 0.0 l/m2 in 1 Std. -
So, 18.11. 18:00 0.0 l/m2 in 1 Std. -
Ortszeit Stärke Spitze Richtung
km/h Bft. km/h Grad Sektor
So, 18.11. 19:00 4 1 36 330° NW
So, 18.11. 13:00 20 4 39 80° O
So, 18.11. 7:00 18 3 40 70° O
So, 18.11. 1:00 20 4 50 80° O
Sa, 17.11. 19:00 22 4 43 90° O
Sa, 17.11. 13:00 26 4 41 80° O
Sa, 17.11. 7:00 18 3 36 90° O
Sa, 17.11. 1:00 11 2 47 90° O
Ortszeit Stärke Spitze Richtung
km/h Bft. km/h Grad Sektor
So, 18.11. 21:00 11 2 22 70° O
So, 18.11. 20:50 11 2 - 70° O
So, 18.11. 20:40 9 2 - 70° O
So, 18.11. 20:30 11 2 18 60° NO
So, 18.11. 20:20 11 2 - 60° NO
So, 18.11. 20:10 11 2 - 60° NO
So, 18.11. 20:00 7 2 14 50° NO
So, 18.11. 19:30 4 1 11 60° NO
So, 18.11. 19:00 4 1 7 330° NW
So, 18.11. 18:30 4 1 7 30° NO
So, 18.11. 18:00 2 1 9 350° N
Ortszeit Untergrenze Bedeckung Gattung
total tief tief mittel hoch
So, 18.11. 19:00 3900 m 8/8 8/8 - - -
So, 18.11. 13:00 - 0/8 0/8 - - -
So, 18.11. 7:00 - 0/8 0/8 - - -
So, 18.11. 1:00 - 0/8 0/8 - - -
Sa, 17.11. 19:00 - 0/8 0/8 - - -
Sa, 17.11. 13:00 - 0/8 0/8 - - -
Sa, 17.11. 7:00 120 m 7/8 8/8 - - -
Sa, 17.11. 1:00 90 m 8/8 8/8 - - -
Ortszeit Bedeckungsgrad in Achtel und Wolkenuntergrenze
So, 18.11. 21:00 8(2700m) 8(3600m) 8(4200m)
So, 18.11. 20:50 8(2700m) 8(3600m) 8(4200m)
So, 18.11. 20:40 8(2700m) 8(3600m) 8(4200m)
So, 18.11. 20:30 7(2700m) 7(4200m)
So, 18.11. 20:20 7(2700m) 7(4200m)
So, 18.11. 20:10 1(2400m) 8(3000m) 8(3600m)
So, 18.11. 20:00 7(3000m) 8(3900m) 7(3900m)
So, 18.11. 19:30 1(3000m) 8(3900m)
So, 18.11. 19:00 8(3900m)
So, 18.11. 18:30 2(4200m)
So, 18.11. 18:00 keine Wolken
Ortszeit Stationsdruck (hPa) Tendenz (hPa in 3 Std.)
So, 18.11. 19:00 913 - 1,6
So, 18.11. 13:00 915 - 0,6
So, 18.11. 7:00 916 - 0,6
So, 18.11. 1:00 918 - 0,5
Sa, 17.11. 19:00 919 + 0,2
Sa, 17.11. 13:00 919 + 0,1
Sa, 17.11. 7:00 918 - 0,7
Sa, 17.11. 1:00 919 - 0,6
Ortszeit Stationsdruck (hPa) Tendenz (hPa in 3 Std.)
So, 18.11. 21:00 912 - 1,1
So, 18.11. 20:50 912 keine Meldung
So, 18.11. 20:40 913 keine Meldung
So, 18.11. 20:30 913 - 1,2
So, 18.11. 20:20 913 keine Meldung
So, 18.11. 20:10 913 keine Meldung
So, 18.11. 20:00 913 - 0,7
So, 18.11. 19:30 913 - 0,8
So, 18.11. 19:00 913 - 1,6
So, 18.11. 18:30 913 - 1,2
So, 18.11. 18:00 914 - 1,2
Ortszeit Schneehöhe (cm)
So, 18.11. 19:00 0
So, 18.11. 13:00 0
So, 18.11. 7:00 0
So, 18.11. 1:00 0
Sa, 17.11. 19:00 0
Sa, 17.11. 13:00 0
Sa, 17.11. 7:00 0
Sa, 17.11. 1:00 0
Ortszeit Schneehöhe (cm)
So, 18.11. 21:00 0
So, 18.11. 20:50 0
So, 18.11. 20:40 0
So, 18.11. 20:30 0
So, 18.11. 20:20 0
So, 18.11. 20:10 0
So, 18.11. 20:00 0
So, 18.11. 19:30 0
So, 18.11. 19:00 0
So, 18.11. 18:30 0
So, 18.11. 18:00 0
Link zu dieser Seite / Seite empfehlen

Das Wetter in ...